Easy to use

vPilot, FSInn, and Squawkbox

VATSIM has 3 different client software available to choose by the user. The 3 different softwares are relatively easy to use and enjoyable to the user's experience. The software's operating manual is available to download in case user has not been able to fully operate the software to get a real working pilot experience.

Radar that functions similarly to real ATC's radar

EuroScope & VRC

VATSIM uses an advanced radar client simulating real ATC experience in the real world. Although it said to be advanced, both radar clients are very easy to use. Another interesting point is VATSIM has the technology to break the limit between simulation and real life experience.

With VATSIM, you can learn more about aviation.
You can also discuss with other aviation geek.

Unforgettable Experience

Current Activity

No controllers currently online!

Pilot

Callsign Name Route
GIA799Excell Lukito (1427937)WARR-WIII
IHS78Dace Nicmane EDDL (1313735)WIII-WMKK
UAE398Ola Christensen ENGM (1359148)OMDB-WADD

*This information may not be up to date.

METAR

Airport Name - Location (ICAO) METAR
Sultan Hasanuddin - Makassar (WAAA)METAR WAAA 161100Z VRB02KT 5000 RA FEW017CB SCT018 24/24 Q1012|NOSIG=
I Gusti Ngurah Rai - Denpasar (WADD)METAR WADD 161100Z 14006KT 9999 FEW017 29/24 Q1010|NOSIG=
Ahmad Yani - Semarang (WAHS)SPECI WAHS 161105Z AUTO 30009KT 9999NDV BKN022 OVC027 30/24 Q1011=
Juanda - Surabaya (WARR)METAR WARR 161100Z 05005KT 8000 FEW020 29/23 Q1010|NOSIG=
Soekarno Hatta - Jakarta (WIII)METAR WIII 161100Z 01005KT 9000 FEW020 28/24 Q1011|NOSIG=
Halim Perdana Kusuma - Jakarta (WIHH)METAR WIHH 161100Z 32004KT 6000 SCT020 28/24 Q1011|NOSIG=
Kualanamu International Airport - Deli Serdang (WIMM)METAR WIMM 161100Z 02007KT 8000 SCT017 28/24 Q1009|NOSIG=

*METAR resource from BMKG. This information may not be up to date.

VATSIM Indonesia vACC VATSIM South East Asia VATSIM Asia